sensor_id;sensor_type;location;lat;lon;timestamp;pressure;altitude;pressure_sealevel;temperature;humidity
38225;BME280;24025;48.138;11.428;2023-05-01T00:00:51;95397.94;;;11.29;57.42
38225;BME280;24025;48.138;11.428;2023-05-01T00:03:22;95384.97;;;11.27;57.56
38225;BME280;24025;48.138;11.428;2023-05-01T00:06:02;95390.28;;;11.27;57.97
38225;BME280;24025;48.138;11.428;2023-05-01T00:08:35;95383.81;;;11.25;57.88
38225;BME280;24025;48.138;11.428;2023-05-01T00:11:06;95388.00;;;11.22;57.99
38225;BME280;24025;48.138;11.428;2023-05-01T00:13:42;95384.91;;;11.20;57.94
38225;BME280;24025;48.138;11.428;2023-05-01T00:16:14;95370.41;;;11.18;58.06
38225;BME280;24025;48.138;11.428;2023-05-01T00:18:49;95374.19;;;11.13;57.30
38225;BME280;24025;48.138;11.428;2023-05-01T00:21:20;95361.22;;;11.15;57.88
38225;BME280;24025;48.138;11.428;2023-05-01T00:23:52;95366.53;;;11.12;57.78
38225;BME280;24025;48.138;11.428;2023-05-01T00:26:24;95375.72;;;11.14;58.07
38225;BME280;24025;48.138;11.428;2023-05-01T00:29:00;95371.53;;;11.13;58.02
38225;BME280;24025;48.138;11.428;2023-05-01T00:31:31;95371.53;;;11.13;57.75
38225;BME280;24025;48.138;11.428;2023-05-01T00:34:03;95376.47;;;11.15;57.80
38225;BME280;24025;48.138;11.428;2023-05-01T00:36:35;95368.88;;;11.17;58.35
38225;BME280;24025;48.138;11.428;2023-05-01T00:39:07;95366.97;;;11.17;58.06
38225;BME280;24025;48.138;11.428;2023-05-01T00:41:38;95369.63;;;11.14;58.49
38225;BME280;24025;48.138;11.428;2023-05-01T00:44:10;95363.50;;;11.13;58.78
38225;BME280;24025;48.138;11.428;2023-05-01T00:46:42;95357.75;;;11.11;58.81
38225;BME280;24025;48.138;11.428;2023-05-01T00:49:14;95352.03;;;11.09;58.60
38225;BME280;24025;48.138;11.428;2023-05-01T00:51:48;95355.44;;;11.06;59.21
38225;BME280;24025;48.138;11.428;2023-05-01T00:54:24;95356.16;;;10.99;59.48
38225;BME280;24025;48.138;11.428;2023-05-01T00:56:56;95359.56;;;10.96;59.53
38225;BME280;24025;48.138;11.428;2023-05-01T00:59:28;95348.84;;;10.93;60.10
38225;BME280;24025;48.138;11.428;2023-05-01T01:02:00;95351.03;;;10.84;60.11
38225;BME280;24025;48.138;11.428;2023-05-01T01:04:32;95352.19;;;10.83;60.46
38225;BME280;24025;48.138;11.428;2023-05-01T01:07:19;95346.47;;;10.81;60.80
38225;BME280;24025;48.138;11.428;2023-05-01T01:10:18;95348.72;;;10.78;60.80
38225;BME280;24025;48.138;11.428;2023-05-01T01:13:11;95343.34;;;10.75;60.49
38225;BME280;24025;48.138;11.428;2023-05-01T01:16:07;95350.22;;;10.76;60.69
38225;BME280;24025;48.138;11.428;2023-05-01T01:18:42;95332.28;;;10.73;60.53
38225;BME280;24025;48.138;11.428;2023-05-01T01:21:34;95331.47;;;10.69;60.18
38225;BME280;24025;48.138;11.428;2023-05-01T01:24:25;95333.41;;;10.72;60.52
38225;BME280;24025;48.138;11.428;2023-05-01T01:28:10;95329.94;;;10.68;60.79
38225;BME280;24025;48.138;11.428;2023-05-01T01:35:56;95325.56;;;10.49;61.34
38225;BME280;24025;48.138;11.428;2023-05-01T01:38:39;95328.63;;;10.47;61.54
38225;BME280;24025;48.138;11.428;2023-05-01T01:41:19;95322.03;;;10.38;62.28
38225;BME280;24025;48.138;11.428;2023-05-01T01:43:58;95323.94;;;10.37;61.80
38225;BME280;24025;48.138;11.428;2023-05-01T01:46:36;95325.03;;;10.33;61.88
38225;BME280;24025;48.138;11.428;2023-05-01T01:49:14;95320.06;;;10.31;62.51
38225;BME280;24025;48.138;11.428;2023-05-01T01:51:51;95314.72;;;10.31;62.42
38225;BME280;24025;48.138;11.428;2023-05-01T01:54:30;95320.75;;;10.25;62.52
38225;BME280;24025;48.138;11.428;2023-05-01T01:57:06;95313.88;;;10.24;62.43
38225;BME280;24025;48.138;11.428;2023-05-01T01:59:39;95310.38;;;10.16;62.63
38225;BME280;24025;48.138;11.428;2023-05-01T02:02:12;95309.19;;;10.13;62.75
38225;BME280;24025;48.138;11.428;2023-05-01T02:04:47;95306.03;;;10.04;63.61
38225;BME280;24025;48.138;11.428;2023-05-01T02:07:20;95314.38;;;9.99;63.91
38225;BME280;24025;48.138;11.428;2023-05-01T02:09:54;95310.44;;;9.89;64.00
38225;BME280;24025;48.138;11.428;2023-05-01T02:12:27;95301.38;;;9.94;63.83
38225;BME280;24025;48.138;11.428;2023-05-01T02:14:59;95307.09;;;9.96;64.09
38225;BME280;24025;48.138;11.428;2023-05-01T02:17:32;95307.09;;;9.96;63.65
38225;BME280;24025;48.138;11.428;2023-05-01T02:20:07;95303.66;;;9.96;63.74
38225;BME280;24025;48.138;11.428;2023-05-01T02:22:40;95296.81;;;9.94;63.94
38225;BME280;24025;48.138;11.428;2023-05-01T02:25:13;95297.47;;;9.88;63.94
38225;BME280;24025;48.138;11.428;2023-05-01T02:27:56;95290.59;;;9.83;64.01
38225;BME280;24025;48.138;11.428;2023-05-01T02:30:30;95286.34;;;9.79;64.03
38225;BME280;24025;48.138;11.428;2023-05-01T02:33:02;95279.81;;;9.73;64.82
38225;BME280;24025;48.138;11.428;2023-05-01T02:35:41;95274.81;;;9.68;64.92
38225;BME280;24025;48.138;11.428;2023-05-01T02:38:15;95278.19;;;9.64;64.82
38225;BME280;24025;48.138;11.428;2023-05-01T02:40:51;95273.53;;;9.58;65.08
38225;BME280;24025;48.138;11.428;2023-05-01T02:43:24;95266.31;;;9.58;64.84
38225;BME280;24025;48.138;11.428;2023-05-01T02:45:57;95262.53;;;9.59;64.90
38225;BME280;24025;48.138;11.428;2023-05-01T02:48:30;95267.47;;;9.61;65.19
38225;BME280;24025;48.138;11.428;2023-05-01T02:51:03;95260.63;;;9.60;64.84
38225;BME280;24025;48.138;11.428;2023-05-01T02:53:36;95272.69;;;9.50;64.81
38225;BME280;24025;48.138;11.428;2023-05-01T02:56:09;95279.75;;;9.39;65.18
38225;BME280;24025;48.138;11.428;2023-05-01T02:58:41;95277.41;;;9.34;64.99
38225;BME280;24025;48.138;11.428;2023-05-01T03:01:13;95274.72;;;9.30;65.96
38225;BME280;24025;48.138;11.428;2023-05-01T03:03:44;95277.72;;;9.29;65.68
38225;BME280;24025;48.138;11.428;2023-05-01T03:06:16;95274.25;;;9.25;66.20
38225;BME280;24025;48.138;11.428;2023-05-01T03:08:49;95269.28;;;9.23;66.21
38225;BME280;24025;48.138;11.428;2023-05-01T03:11:21;95269.31;;;9.27;65.98
38225;BME280;24025;48.138;11.428;2023-05-01T03:13:54;95270.91;;;9.31;65.86
38225;BME280;24025;48.138;11.428;2023-05-01T03:16:26;95264.06;;;9.30;65.94
38225;BME280;24025;48.138;11.428;2023-05-01T03:18:58;95262.47;;;9.26;66.20
38225;BME280;24025;48.138;11.428;2023-05-01T03:21:29;95265.13;;;9.26;66.53
38225;BME280;24025;48.138;11.428;2023-05-01T03:24:02;95256.03;;;9.27;66.43
38225;BME280;24025;48.138;11.428;2023-05-01T03:26:33;95258.34;;;9.28;66.01
38225;BME280;24025;48.138;11.428;2023-05-01T03:29:05;95256.38;;;9.25;66.53
38225;BME280;24025;48.138;11.428;2023-05-01T03:31:36;95260.53;;;9.23;66.46
38225;BME280;24025;48.138;11.428;2023-05-01T03:34:08;95254.44;;;9.22;66.29
38225;BME280;24025;48.138;11.428;2023-05-01T03:36:39;95252.78;;;9.11;66.57
38225;BME280;24025;48.138;11.428;2023-05-01T03:39:11;95259.16;;;9.06;67.30
38225;BME280;24025;48.138;11.428;2023-05-01T03:41:43;95255.25;;;9.00;67.64
38225;BME280;24025;48.138;11.428;2023-05-01T03:44:14;95251.81;;;8.96;67.41
38225;BME280;24025;48.138;11.428;2023-05-01T03:46:46;95249.88;;;8.93;68.19
38225;BME280;24025;48.138;11.428;2023-05-01T03:49:17;95254.75;;;8.91;67.46
38225;BME280;24025;48.138;11.428;2023-05-01T03:51:49;95251.03;;;8.95;68.47
38225;BME280;24025;48.138;11.428;2023-05-01T03:54:21;95251.41;;;8.94;68.23
38225;BME280;24025;48.138;11.428;2023-05-01T03:56:52;95249.88;;;8.93;68.19
38225;BME280;24025;48.138;11.428;2023-05-01T03:59:24;95251.41;;;8.94;68.17
38225;BME280;24025;48.138;11.428;2023-05-01T04:01:56;95251.81;;;8.96;68.31
38225;BME280;24025;48.138;11.428;2023-05-01T04:04:27;95246.47;;;8.96;68.02
38225;BME280;24025;48.138;11.428;2023-05-01T04:07:00;95246.00;;;8.90;68.19
38225;BME280;24025;48.138;11.428;2023-05-01T04:09:32;95237.22;;;8.86;67.95
38225;BME280;24025;48.138;11.428;2023-05-01T04:12:03;95243.59;;;8.82;68.14
38225;BME280;24025;48.138;11.428;2023-05-01T04:14:35;95250.00;;;8.77;68.54
38225;BME280;24025;48.138;11.428;2023-05-01T04:17:07;95244.63;;;8.73;68.19
38225;BME280;24025;48.138;11.428;2023-05-01T04:19:38;95246.94;;;8.75;68.63
38225;BME280;24025;48.138;11.428;2023-05-01T04:22:11;95245.84;;;8.79;68.89
38225;BME280;24025;48.138;11.428;2023-05-01T04:24:43;95245.50;;;8.81;68.90
38225;BME280;24025;48.138;11.428;2023-05-01T04:27:14;95247.03;;;8.82;68.61
38225;BME280;24025;48.138;11.428;2023-05-01T04:29:46;95239.13;;;8.86;68.46
38225;BME280;24025;48.138;11.428;2023-05-01T04:32:17;95240.34;;;8.92;68.73
38225;BME280;24025;48.138;11.428;2023-05-01T04:34:49;95242.66;;;8.93;68.42
38225;BME280;24025;48.138;11.428;2023-05-01T04:37:20;95241.19;;;8.99;68.61
38225;BME280;24025;48.138;11.428;2023-05-01T04:39:52;95236.06;;;9.10;68.32
38225;BME280;24025;48.138;11.428;2023-05-01T04:42:28;95237.25;;;9.16;68.32
38225;BME280;24025;48.138;11.428;2023-05-01T04:45:00;95241.44;;;9.17;68.53
38225;BME280;24025;48.138;11.428;2023-05-01T04:47:34;95235.47;;;9.24;68.08
38225;BME280;24025;48.138;11.428;2023-05-01T04:50:06;95240.41;;;9.25;67.67
38225;BME280;24025;48.138;11.428;2023-05-01T04:52:38;95246.88;;;9.24;68.37
38225;BME280;24025;48.138;11.428;2023-05-01T04:55:10;95242.31;;;9.25;68.27
38225;BME280;24025;48.138;11.428;2023-05-01T04:57:41;95243.47;;;9.27;68.22
38225;BME280;24025;48.138;11.428;2023-05-01T05:00:13;95252.25;;;9.28;68.57
38225;BME280;24025;48.138;11.428;2023-05-01T05:02:45;95247.69;;;9.28;68.13
38225;BME280;24025;48.138;11.428;2023-05-01T05:05:17;95250.03;;;9.33;68.72
38225;BME280;24025;48.138;11.428;2023-05-01T05:07:48;95254.34;;;9.15;68.60
38225;BME280;24025;48.138;11.428;2023-05-01T05:10:20;95257.63;;;9.05;69.03
38225;BME280;24025;48.138;11.428;2023-05-01T05:12:51;95256.28;;;8.92;69.41
38225;BME280;24025;48.138;11.428;2023-05-01T05:15:23;95250.44;;;9.09;69.77
38225;BME280;24025;48.138;11.428;2023-05-01T05:17:54;95253.94;;;9.13;68.71
38225;BME280;24025;48.138;11.428;2023-05-01T05:20:27;95261.53;;;9.11;69.08
38225;BME280;24025;48.138;11.428;2023-05-01T05:22:58;95254.25;;;9.08;68.82
38225;BME280;24025;48.138;11.428;2023-05-01T05:25:29;95261.94;;;9.13;69.06
38225;BME280;24025;48.138;11.428;2023-05-01T05:28:01;95256.91;;;9.08;68.59
38225;BME280;24025;48.138;11.428;2023-05-01T05:30:32;95261.19;;;9.16;68.63
38225;BME280;24025;48.138;11.428;2023-05-01T05:33:06;95260.75;;;9.11;68.96
38225;BME280;24025;48.138;11.428;2023-05-01T05:35:39;95259.38;;;9.20;68.23
38225;BME280;24025;48.138;11.428;2023-05-01T05:38:10;95265.56;;;9.28;68.80
38225;BME280;24025;48.138;11.428;2023-05-01T05:40:42;95257.00;;;9.45;68.48
38225;BME280;24025;48.138;11.428;2023-05-01T05:43:13;95253.78;;;9.59;67.89
38225;BME280;24025;48.138;11.428;2023-05-01T05:45:44;95256.63;;;9.73;67.31
38225;BME280;24025;48.138;11.428;2023-05-01T05:48:16;95254.88;;;9.88;66.66
38225;BME280;24025;48.138;11.428;2023-05-01T05:50:48;95260.34;;;9.99;66.46
38225;BME280;24025;48.138;11.428;2023-05-01T05:53:21;95258.94;;;10.12;66.27
38225;BME280;24025;48.138;11.428;2023-05-01T05:55:56;95270.50;;;10.23;66.05
38225;BME280;24025;48.138;11.428;2023-05-01T05:58:27;95264.16;;;10.35;65.96
38225;BME280;24025;48.138;11.428;2023-05-01T06:00:59;95269.56;;;10.45;65.49
38225;BME280;24025;48.138;11.428;2023-05-01T06:03:30;95261.22;;;10.50;64.92
38225;BME280;24025;48.138;11.428;2023-05-01T06:06:02;95256.00;;;10.61;64.78
38225;BME280;24025;48.138;11.428;2023-05-01T06:08:34;95255.69;;;10.70;65.09
38225;BME280;24025;48.138;11.428;2023-05-01T06:11:07;95255.78;;;10.81;63.98
38225;BME280;24025;48.138;11.428;2023-05-01T06:13:39;95249.69;;;10.84;63.60
38225;BME280;24025;48.138;11.428;2023-05-01T06:16:11;95251.28;;;10.92;63.42
38225;BME280;24025;48.138;11.428;2023-05-01T06:18:42;95250.44;;;10.84;63.51
38225;BME280;24025;48.138;11.428;2023-05-01T06:21:16;95253.25;;;11.02;63.15
38225;BME280;24025;48.138;11.428;2023-05-01T06:23:47;95252.91;;;11.11;62.52
38225;BME280;24025;48.138;11.428;2023-05-01T06:26:19;95253.75;;;11.22;62.62
38225;BME280;24025;48.138;11.428;2023-05-01T06:28:51;95255.72;;;11.32;62.14
38225;BME280;24025;48.138;11.428;2023-05-01T06:31:23;95258.41;;;11.39;62.02
38225;BME280;24025;48.138;11.428;2023-05-01T06:33:55;95260.03;;;11.51;61.83
38225;BME280;24025;48.138;11.428;2023-05-01T06:36:26;95254.69;;;11.54;60.31
38225;BME280;24025;48.138;11.428;2023-05-01T06:38:58;95251.28;;;11.61;61.21
38225;BME280;24025;48.138;11.428;2023-05-01T06:41:29;95258.56;;;11.68;60.64
38225;BME280;24025;48.138;11.428;2023-05-01T06:44:03;95261.25;;;11.68;60.43
38225;BME280;24025;48.138;11.428;2023-05-01T06:46:35;95259.69;;;11.63;59.70
38225;BME280;24025;48.138;11.428;2023-05-01T06:49:06;95258.97;;;11.70;60.18
38225;BME280;24025;48.138;11.428;2023-05-01T06:51:38;95255.53;;;11.73;59.51
38225;BME280;24025;48.138;11.428;2023-05-01T06:54:09;95253.28;;;11.78;59.42
38225;BME280;24025;48.138;11.428;2023-05-01T06:56:41;95257.81;;;11.67;59.34
38225;BME280;24025;48.138;11.428;2023-05-01T06:59:13;95259.69;;;11.63;59.59
38225;BME280;24025;48.138;11.428;2023-05-01T07:01:44;95260.75;;;11.41;59.13
38225;BME280;24025;48.138;11.428;2023-05-01T07:04:17;95262.31;;;11.56;59.79
38225;BME280;24025;48.138;11.428;2023-05-01T07:06:49;95262.75;;;11.61;60.41
38225;BME280;24025;48.138;11.428;2023-05-01T07:09:21;95257.41;;;11.58;60.47
38225;BME280;24025;48.138;11.428;2023-05-01T07:11:52;95267.94;;;11.37;60.63
38225;BME280;24025;48.138;11.428;2023-05-01T07:14:24;95262.66;;;11.44;61.28
38225;BME280;24025;48.138;11.428;2023-05-01T07:16:55;95262.22;;;11.34;61.10
38225;BME280;24025;48.138;11.428;2023-05-01T07:19:27;95265.31;;;11.44;60.98
38225;BME280;24025;48.138;11.428;2023-05-01T07:21:59;95261.59;;;11.59;60.47
38225;BME280;24025;48.138;11.428;2023-05-01T07:24:31;95262.28;;;11.45;60.31
38225;BME280;24025;48.138;11.428;2023-05-01T07:27:02;95263.03;;;11.46;61.16
38225;BME280;24025;48.138;11.428;2023-05-01T07:29:37;95271.66;;;11.18;60.94
38225;BME280;24025;48.138;11.428;2023-05-01T07:32:10;95277.38;;;11.20;61.32
38225;BME280;24025;48.138;11.428;2023-05-01T07:34:42;95275.56;;;11.31;61.18
38225;BME280;24025;48.138;11.428;2023-05-01T07:37:13;95269.41;;;11.23;61.59
38225;BME280;24025;48.138;11.428;2023-05-01T07:39:45;95276.28;;;11.28;61.55
38225;BME280;24025;48.138;11.428;2023-05-01T07:42:16;95269.47;;;11.38;61.36
38225;BME280;24025;48.138;11.428;2023-05-01T07:44:49;95275.53;;;11.27;61.76
38225;BME280;24025;48.138;11.428;2023-05-01T07:47:21;95270.56;;;11.29;61.26
38225;BME280;24025;48.138;11.428;2023-05-01T07:49:53;95269.53;;;11.48;61.22
38225;BME280;24025;48.138;11.428;2023-05-01T07:52:25;95270.00;;;11.64;60.71
38225;BME280;24025;48.138;11.428;2023-05-01T07:54:57;95270.38;;;11.59;61.21
38225;BME280;24025;48.138;11.428;2023-05-01T07:57:28;95278.72;;;11.54;61.02
38225;BME280;24025;48.138;11.428;2023-05-01T08:00:01;95275.00;;;11.73;61.60
38225;BME280;24025;48.138;11.428;2023-05-01T08:02:43;95276.59;;;11.81;60.76
38225;BME280;24025;48.138;11.428;2023-05-01T08:05:14;95275.75;;;11.67;61.45
38225;BME280;24025;48.138;11.428;2023-05-01T08:07:47;95278.41;;;11.67;61.78
38225;BME280;24025;48.138;11.428;2023-05-01T08:10:19;95292.28;;;11.24;62.57
38225;BME280;24025;48.138;11.428;2023-05-01T08:12:50;95289.25;;;11.26;62.93
38225;BME280;24025;48.138;11.428;2023-05-01T08:15:22;95286.44;;;11.04;63.91
38225;BME280;24025;48.138;11.428;2023-05-01T08:17:54;95289.91;;;11.12;63.93
38225;BME280;24025;48.138;11.428;2023-05-01T08:20:26;95294.16;;;11.20;64.28
38225;BME280;24025;48.138;11.428;2023-05-01T08:22:57;95297.13;;;11.08;65.40
38225;BME280;24025;48.138;11.428;2023-05-01T08:25:29;95293.25;;;11.02;65.63
38225;BME280;24025;48.138;11.428;2023-05-01T08:28:02;95300.94;;;11.11;66.09
38225;BME280;24025;48.138;11.428;2023-05-01T08:30:34;95301.75;;;11.15;66.82
38225;BME280;24025;48.138;11.428;2023-05-01T08:33:05;95298.28;;;11.07;68.02
38225;BME280;24025;48.138;11.428;2023-05-01T08:35:37;95301.22;;;10.95;70.41
38225;BME280;24025;48.138;11.428;2023-05-01T08:38:12;95302.41;;;10.97;72.67
38225;BME280;24025;48.138;11.428;2023-05-01T08:40:51;95303.91;;;10.98;73.71
38225;BME280;24025;48.138;11.428;2023-05-01T08:43:29;95298.66;;;11.05;74.17
38225;BME280;24025;48.138;11.428;2023-05-01T08:46:02;95310.09;;;11.06;74.77
38225;BME280;24025;48.138;11.428;2023-05-01T08:48:35;95299.41;;;11.06;75.08
38225;BME280;24025;48.138;11.428;2023-05-01T08:51:09;95307.03;;;11.07;75.33
38225;BME280;24025;48.138;11.428;2023-05-01T08:53:41;95313.78;;;10.94;77.15
38225;BME280;24025;48.138;11.428;2023-05-01T08:56:14;95315.91;;;10.71;78.90
38225;BME280;24025;48.138;11.428;2023-05-01T08:58:48;95323.66;;;10.46;81.96
38225;BME280;24025;48.138;11.428;2023-05-01T09:01:21;95322.63;;;10.58;80.65
38225;BME280;24025;48.138;11.428;2023-05-01T09:03:55;95323.25;;;10.44;81.63
38225;BME280;24025;48.138;11.428;2023-05-01T09:06:28;95320.28;;;10.53;82.67
38225;BME280;24025;48.138;11.428;2023-05-01T09:09:00;95325.94;;;10.47;82.47
38225;BME280;24025;48.138;11.428;2023-05-01T09:11:32;95328.28;;;10.53;82.62
38225;BME280;24025;48.138;11.428;2023-05-01T09:14:04;95333.34;;;10.61;81.40
38225;BME280;24025;48.138;11.428;2023-05-01T09:16:36;95324.38;;;10.43;82.73
38225;BME280;24025;48.138;11.428;2023-05-01T09:19:08;95330.22;;;10.56;83.92
38225;BME280;24025;48.138;11.428;2023-05-01T09:21:40;95325.88;;;10.40;83.16
38225;BME280;24025;48.138;11.428;2023-05-01T09:24:12;95328.50;;;10.37;84.66
38225;BME280;24025;48.138;11.428;2023-05-01T09:26:43;95336.28;;;10.53;85.03
38225;BME280;24025;48.138;11.428;2023-05-01T09:29:42;95337.44;;;10.55;85.20
38225;BME280;24025;48.138;11.428;2023-05-01T09:32:18;95336.28;;;10.53;83.55
38225;BME280;24025;48.138;11.428;2023-05-01T09:35:12;95336.00;;;10.61;83.90
38225;BME280;24025;48.138;11.428;2023-05-01T09:37:48;95335.38;;;10.38;83.14
38225;BME280;24025;48.138;11.428;2023-05-01T09:40:26;95337.66;;;10.39;84.77
38225;BME280;24025;48.138;11.428;2023-05-01T09:42:57;95340.91;;;10.59;83.62
38225;BME280;24025;48.138;11.428;2023-05-01T09:45:29;95339.44;;;10.65;82.84
38225;BME280;24025;48.138;11.428;2023-05-01T09:48:08;95344.47;;;10.74;81.52
38225;BME280;24025;48.138;11.428;2023-05-01T09:50:43;95342.13;;;10.65;84.13
38225;BME280;24025;48.138;11.428;2023-05-01T09:53:15;95347.53;;;10.72;83.32
38225;BME280;24025;48.138;11.428;2023-05-01T09:55:59;95341.97;;;10.51;85.18
38225;BME280;24025;48.138;11.428;2023-05-01T09:58:32;95343.16;;;10.54;87.16
38225;BME280;24025;48.138;11.428;2023-05-01T10:01:03;95344.69;;;10.55;84.53
38225;BME280;24025;48.138;11.428;2023-05-01T10:03:36;95345.78;;;10.50;85.50
38225;BME280;24025;48.138;11.428;2023-05-01T10:06:08;95339.84;;;10.67;85.31
38225;BME280;24025;48.138;11.428;2023-05-01T10:08:47;95339.84;;;10.67;83.51
38225;BME280;24025;48.138;11.428;2023-05-01T10:11:19;95342.50;;;10.67;86.32
38225;BME280;24025;48.138;11.428;2023-05-01T10:14:06;95342.97;;;10.76;85.40
38225;BME280;24025;48.138;11.428;2023-05-01T10:16:39;95349.19;;;10.88;84.82
38225;BME280;24025;48.138;11.428;2023-05-01T10:19:10;95346.25;;;10.59;85.58
38225;BME280;24025;48.138;11.428;2023-05-01T10:21:42;95344.38;;;10.63;86.68
38225;BME280;24025;48.138;11.428;2023-05-01T10:24:15;95347.47;;;10.69;86.58
38225;BME280;24025;48.138;11.428;2023-05-01T10:26:48;95347.06;;;10.63;86.74
38225;BME280;24025;48.138;11.428;2023-05-01T10:29:22;95345.59;;;10.69;86.65
38225;BME280;24025;48.138;11.428;2023-05-01T10:31:55;95352.41;;;10.67;87.97
38225;BME280;24025;48.138;11.428;2023-05-01T10:34:27;95349.09;;;10.40;87.70
38225;BME280;24025;48.138;11.428;2023-05-01T10:37:08;95343.94;;;10.58;88.12
38225;BME280;24025;48.138;11.428;2023-05-01T10:39:43;95336.47;;;10.70;88.05
38225;BME280;24025;48.138;11.428;2023-05-01T10:42:15;95334.88;;;10.66;87.40
38225;BME280;24025;48.138;11.428;2023-05-01T10:44:47;95345.34;;;10.85;87.32
38225;BME280;24025;48.138;11.428;2023-05-01T10:50:05;95339.28;;;10.88;87.06
38225;BME280;24025;48.138;11.428;2023-05-01T10:55:48;95333.94;;;10.88;88.63
38225;BME280;24025;48.138;11.428;2023-05-01T11:01:35;95328.94;;;10.83;88.64
38225;BME280;24025;48.138;11.428;2023-05-01T11:09:44;95321.38;;;10.89;90.04
38225;BME280;24025;48.138;11.428;2023-05-01T11:15:32;95313.38;;;10.89;91.54
38225;BME280;24025;48.138;11.428;2023-05-01T11:18:04;95314.59;;;10.98;90.86
38225;BME280;24025;48.138;11.428;2023-05-01T11:20:47;95314.97;;;11.00;89.62
38225;BME280;24025;48.138;11.428;2023-05-01T11:23:19;95310.03;;;11.02;90.19
38225;BME280;24025;48.138;11.428;2023-05-01T11:26:00;95311.16;;;10.98;92.34
38225;BME280;24025;48.138;11.428;2023-05-01T11:28:33;95305.00;;;10.90;93.33
38225;BME280;24025;48.138;11.428;2023-05-01T11:31:06;95306.53;;;10.91;94.14
38225;BME280;24025;48.138;11.428;2023-05-01T11:33:38;95306.97;;;10.97;92.17
38225;BME280;24025;48.138;11.428;2023-05-01T11:36:11;95298.09;;;10.86;93.03
38225;BME280;24025;48.138;11.428;2023-05-01T11:38:55;95296.28;;;10.97;94.37
38225;BME280;24025;48.138;11.428;2023-05-01T11:41:27;95302.34;;;10.94;94.00
38225;BME280;24025;48.138;11.428;2023-05-01T11:43:58;95300.75;;;10.86;93.00
38225;BME280;24025;48.138;11.428;2023-05-01T11:46:31;95298.06;;;10.78;93.81
38225;BME280;24025;48.138;11.428;2023-05-01T11:49:04;95300.03;;;10.89;93.16
38225;BME280;24025;48.138;11.428;2023-05-01T11:51:35;95300.72;;;10.78;92.55
38225;BME280;24025;48.138;11.428;2023-05-01T11:54:10;95303.56;;;11.03;91.39
38225;BME280;24025;48.138;11.428;2023-05-01T11:56:46;95299.78;;;11.04;91.84
38225;BME280;24025;48.138;11.428;2023-05-01T11:59:17;95299.09;;;11.18;90.41
38225;BME280;24025;48.138;11.428;2023-05-01T12:01:49;95301.16;;;11.43;89.26
38225;BME280;24025;48.138;11.428;2023-05-01T12:04:29;95301.13;;;11.39;87.99
38225;BME280;24025;48.138;11.428;2023-05-01T12:07:02;95308.41;;;11.42;86.95
38225;BME280;24025;48.138;11.428;2023-05-01T12:09:34;95301.22;;;11.50;87.41
38225;BME280;24025;48.138;11.428;2023-05-01T12:12:06;95303.59;;;11.73;88.21
38225;BME280;24025;48.138;11.428;2023-05-01T12:14:38;95310.81;;;11.61;87.73
38225;BME280;24025;48.138;11.428;2023-05-01T12:17:10;95305.13;;;11.70;89.29
38225;BME280;24025;48.138;11.428;2023-05-01T12:19:46;95309.31;;;11.68;88.72
38225;BME280;24025;48.138;11.428;2023-05-01T12:22:21;95301.69;;;11.70;87.67
38225;BME280;24025;48.138;11.428;2023-05-01T12:24:53;95315.28;;;11.43;88.08
38225;BME280;24025;48.138;11.428;2023-05-01T12:27:24;95304.28;;;11.52;88.21
38225;BME280;24025;48.138;11.428;2023-05-01T12:29:56;95304.00;;;11.71;87.92
38225;BME280;24025;48.138;11.428;2023-05-01T12:32:31;95304.00;;;11.71;88.47
38225;BME280;24025;48.138;11.428;2023-05-01T12:35:13;95299.75;;;11.59;88.84
38225;BME280;24025;48.138;11.428;2023-05-01T12:37:45;95292.13;;;11.61;88.78
38225;BME280;24025;48.138;11.428;2023-05-01T12:40:17;95298.78;;;11.30;87.74
38225;BME280;24025;48.138;11.428;2023-05-01T12:42:53;95303.75;;;11.28;90.71
38225;BME280;24025;48.138;11.428;2023-05-01T12:45:27;95295.97;;;11.71;89.62
38225;BME280;24025;48.138;11.428;2023-05-01T12:47:59;95297.66;;;12.01;86.42
38225;BME280;24025;48.138;11.428;2023-05-01T12:50:35;95303.06;;;12.11;85.68
38225;BME280;24025;48.138;11.428;2023-05-01T12:53:08;95306.97;;;12.50;83.50
38225;BME280;24025;48.138;11.428;2023-05-01T12:55:47;95309.16;;;12.15;84.65
38225;BME280;24025;48.138;11.428;2023-05-01T12:58:19;95313.09;;;12.61;82.06
38225;BME280;24025;48.138;11.428;2023-05-01T13:00:53;95307.00;;;12.85;82.79
38225;BME280;24025;48.138;11.428;2023-05-01T13:03:27;95308.53;;;13.11;83.83
38225;BME280;24025;48.138;11.428;2023-05-01T13:06:02;95308.91;;;12.88;80.49
38225;BME280;24025;48.138;11.428;2023-05-01T13:08:38;95308.16;;;12.91;80.00
38225;BME280;24025;48.138;11.428;2023-05-01T13:11:15;95304.31;;;13.07;80.30
38225;BME280;24025;48.138;11.428;2023-05-01T13:13:48;95304.31;;;13.07;79.77
38225;BME280;24025;48.138;11.428;2023-05-01T13:16:20;95299.31;;;13.51;75.90
38225;BME280;24025;48.138;11.428;2023-05-01T13:18:52;95300.81;;;13.59;75.46
38225;BME280;24025;48.138;11.428;2023-05-01T13:21:24;95293.47;;;13.88;74.17
38225;BME280;24025;48.138;11.428;2023-05-01T13:23:59;95300.66;;;14.09;73.29
38225;BME280;24025;48.138;11.428;2023-05-01T13:26:32;95292.91;;;14.29;72.73
38225;BME280;24025;48.138;11.428;2023-05-01T13:29:05;95293.03;;;14.01;71.96
38225;BME280;24025;48.138;11.428;2023-05-01T13:31:37;95293.97;;;14.50;71.36
38225;BME280;24025;48.138;11.428;2023-05-01T13:34:16;95290.84;;;14.62;73.00
38225;BME280;24025;48.138;11.428;2023-05-01T13:36:53;95283.16;;;14.64;73.13
38225;BME280;24025;48.138;11.428;2023-05-01T13:39:24;95297.09;;;14.96;71.07
38225;BME280;24025;48.138;11.428;2023-05-01T13:41:56;95292.59;;;15.27;69.24
38225;BME280;24025;48.138;11.428;2023-05-01T13:44:28;95296.38;;;14.89;68.07
38225;BME280;24025;48.138;11.428;2023-05-01T13:47:01;95293.06;;;14.70;68.37
38225;BME280;24025;48.138;11.428;2023-05-01T13:49:33;95297.81;;;15.00;68.61